createdAt,value
2018-11-06T00:00:32.604Z,98533.58
2018-11-06T00:03:06.375Z,98526.65
2018-11-06T00:06:38.073Z,98512.95
2018-11-06T00:09:08.279Z,98527.66
2018-11-06T00:11:36.861Z,98537.77
2018-11-06T00:14:09.024Z,98540.31
2018-11-06T00:16:37.637Z,98538.36
2018-11-06T00:19:06.293Z,98535.92
2018-11-06T00:21:34.881Z,98533.16
2018-11-06T00:24:03.446Z,98532.53
2018-11-06T00:26:32.048Z,98525.47
2018-11-06T00:29:00.618Z,98526.79
2018-11-06T00:31:29.340Z,98527.92
2018-11-06T00:33:58.101Z,98534.56
2018-11-06T00:36:26.703Z,98535.87
2018-11-06T00:38:55.283Z,98530.48
2018-11-06T00:41:23.916Z,98536.15
2018-11-06T00:43:52.477Z,98530.30
2018-11-06T00:46:21.097Z,98522.02
2018-11-06T00:48:49.659Z,98518.99
2018-11-06T00:51:18.243Z,98519.64
2018-11-06T00:53:46.820Z,98518.20
2018-11-06T00:56:15.388Z,98530.40
2018-11-06T00:58:43.980Z,98523.38
2018-11-06T01:01:12.547Z,98518.04
2018-11-06T01:03:46.321Z,98514.48
2018-11-06T01:06:14.888Z,98512.66
2018-11-06T01:08:43.489Z,98505.03
2018-11-06T01:11:12.041Z,98501.88
2018-11-06T01:13:40.701Z,98503.34
2018-11-06T01:16:09.273Z,98506.45
2018-11-06T01:18:37.863Z,98505.57
2018-11-06T01:21:06.540Z,98501.91
2018-11-06T01:23:35.641Z,98509.81
2018-11-06T01:26:04.293Z,98514.13
2018-11-06T01:28:32.932Z,98511.69
2018-11-06T01:31:01.532Z,98509.23
2018-11-06T01:33:30.137Z,98513.77
2018-11-06T01:35:58.717Z,98509.28
2018-11-06T01:38:27.328Z,98502.97
2018-11-06T01:40:55.957Z,98497.14
2018-11-06T01:43:24.629Z,98497.98
2018-11-06T01:45:53.184Z,98494.84
2018-11-06T01:48:21.999Z,98490.81
2018-11-06T01:50:50.559Z,98486.59
2018-11-06T01:53:19.245Z,98478.42
2018-11-06T01:55:47.806Z,98484.12
2018-11-06T01:58:16.393Z,98486.38
2018-11-06T02:00:44.961Z,98490.67
2018-11-06T02:03:13.560Z,98482.94
2018-11-06T02:05:42.161Z,98482.19
2018-11-06T02:08:10.753Z,98485.93
2018-11-06T02:10:39.320Z,98484.42
2018-11-06T02:13:07.914Z,98472.12
2018-11-06T02:15:36.480Z,98479.29
2018-11-06T02:18:05.472Z,98476.06
2018-11-06T02:20:34.038Z,98465.71
2018-11-06T02:23:02.658Z,98446.04
2018-11-06T02:25:31.233Z,98445.39
2018-11-06T02:27:59.833Z,98438.22
2018-11-06T02:30:28.391Z,98436.38
2018-11-06T02:32:56.976Z,98441.22
2018-11-06T02:35:25.575Z,98437.58
2018-11-06T02:37:54.193Z,98436.75
2018-11-06T02:40:22.756Z,98437.77
2018-11-06T02:42:51.345Z,98450.80
2018-11-06T02:45:20.073Z,98458.62
2018-11-06T02:47:48.863Z,98449.61
2018-11-06T02:50:17.501Z,98453.52
2018-11-06T02:52:46.083Z,98456.86
2018-11-06T02:55:16.987Z,98453.98
2018-11-06T02:57:45.917Z,98462.64
2018-11-06T03:00:16.834Z,98469.00
2018-11-06T03:02:46.445Z,98470.84
2018-11-06T03:05:15.107Z,98469.55
2018-11-06T03:07:43.715Z,98479.23
2018-11-06T03:10:13.187Z,98474.01
2018-11-06T03:12:42.621Z,98477.94
2018-11-06T03:15:12.449Z,98480.16
2018-11-06T03:17:41.005Z,98486.69
2018-11-06T03:20:10.654Z,98487.42
2018-11-06T03:22:39.285Z,98485.09
2018-11-06T03:25:08.134Z,98479.52
2018-11-06T03:27:36.728Z,98472.88
2018-11-06T03:30:07.441Z,98469.72
2018-11-06T03:32:35.997Z,98459.94
2018-11-06T03:35:04.634Z,98453.03
2018-11-06T03:37:33.451Z,98451.84
2018-11-06T03:40:02.069Z,98447.64
2018-11-06T03:42:30.616Z,98450.05
2018-11-06T03:44:59.210Z,98459.34
2018-11-06T03:47:27.788Z,98461.03
2018-11-06T03:49:56.368Z,98456.11
2018-11-06T03:52:30.966Z,98446.69
2018-11-06T03:55:06.850Z,98450.57
2018-11-06T03:57:39.879Z,98446.61
2018-11-06T04:00:17.582Z,98444.88
2018-11-06T04:02:49.361Z,98431.10
2018-11-06T04:05:24.776Z,98430.45
2018-11-06T04:08:01.030Z,98432.23
2018-11-06T04:10:36.539Z,98427.28
2018-11-06T04:13:10.429Z,98416.37
2018-11-06T04:15:44.610Z,98412.47
2018-11-06T04:18:15.077Z,98410.84
2018-11-06T04:20:49.657Z,98414.36
2018-11-06T04:23:23.033Z,98414.75
2018-11-06T04:25:58.177Z,98417.80
2018-11-06T04:28:26.917Z,98412.36
2018-11-06T04:30:55.529Z,98412.80
2018-11-06T04:33:24.134Z,98419.24
2018-11-06T04:35:52.730Z,98421.28
2018-11-06T04:38:21.290Z,98431.36
2018-11-06T04:40:49.889Z,98428.67
2018-11-06T04:43:18.520Z,98432.19
2018-11-06T04:45:47.126Z,98433.45
2018-11-06T04:48:15.681Z,98433.19
2018-11-06T04:50:44.265Z,98431.23
2018-11-06T04:53:12.865Z,98426.66
2018-11-06T04:55:41.452Z,98433.47
2018-11-06T04:58:10.004Z,98425.46
2018-11-06T05:00:38.603Z,98422.56
2018-11-06T05:03:07.161Z,98430.01
2018-11-06T05:05:35.741Z,98434.66
2018-11-06T05:08:04.292Z,98434.09
2018-11-06T05:10:32.885Z,98436.73
2018-11-06T05:13:01.454Z,98436.91
2018-11-06T05:15:30.046Z,98433.20
2018-11-06T05:17:58.601Z,98436.47
2018-11-06T05:20:27.177Z,98430.78
2018-11-06T05:22:55.729Z,98433.86
2018-11-06T05:25:24.380Z,98433.47
2018-11-06T05:27:52.915Z,98432.70
2018-11-06T05:30:21.511Z,98437.02
2018-11-06T05:32:50.085Z,98436.55
2018-11-06T05:35:18.695Z,98437.66
2018-11-06T05:37:47.238Z,98436.55
2018-11-06T05:41:27.125Z,98436.91
2018-11-06T05:43:55.673Z,98437.70
2018-11-06T05:46:24.258Z,98441.13
2018-11-06T05:48:52.795Z,98443.75
2018-11-06T05:51:21.356Z,98448.13
2018-11-06T05:53:49.908Z,98460.00
2018-11-06T05:56:18.492Z,98467.17
2018-11-06T05:58:48.537Z,98475.00
2018-11-06T06:01:19.798Z,98476.00
2018-11-06T06:03:50.572Z,98477.14
2018-11-06T06:06:20.806Z,98467.98
2018-11-06T06:08:52.032Z,98459.95
2018-11-06T06:11:23.134Z,98460.52
2018-11-06T06:13:56.151Z,98466.25
2018-11-06T06:16:34.684Z,98472.95
2018-11-06T06:19:09.868Z,98471.77
2018-11-06T06:21:49.261Z,98477.52
2018-11-06T06:24:23.078Z,98478.34
2018-11-06T06:26:58.377Z,98488.51
2018-11-06T06:29:32.905Z,98491.55
2018-11-06T06:32:08.860Z,98497.01
2018-11-06T06:34:42.710Z,98515.00
2018-11-06T06:37:18.272Z,98510.88
2018-11-06T06:39:52.621Z,98515.27
2018-11-06T06:42:27.780Z,98520.36
2018-11-06T06:45:02.810Z,98517.14
2018-11-06T06:47:39.451Z,98525.59
2018-11-06T06:50:19.002Z,98526.42
2018-11-06T06:52:54.857Z,98537.40
2018-11-06T06:55:29.495Z,98537.75
2018-11-06T06:58:04.257Z,98532.20
2018-11-06T07:00:32.965Z,98532.19
2018-11-06T07:03:01.559Z,98531.39
2018-11-06T07:05:30.121Z,98528.34
2018-11-06T07:07:58.710Z,98527.56
2018-11-06T07:10:27.263Z,98522.98
2018-11-06T07:12:56.186Z,98519.73
2018-11-06T07:15:34.077Z,98528.85
2018-11-06T07:18:03.308Z,98531.95
2018-11-06T07:20:32.620Z,98534.81
2018-11-06T07:23:01.222Z,98545.00
2018-11-06T07:25:29.772Z,98549.22
2018-11-06T07:28:05.466Z,98561.69
2018-11-06T07:30:34.217Z,98558.42
2018-11-06T07:33:02.816Z,98549.30
2018-11-06T07:35:31.532Z,98554.66
2018-11-06T07:37:59.974Z,98563.97
2018-11-06T07:40:36.165Z,98572.02
2018-11-06T07:43:05.046Z,98564.95
2018-11-06T07:45:33.604Z,98568.59
2018-11-06T07:48:02.190Z,98567.24
2018-11-06T07:50:30.826Z,98561.09
2018-11-06T07:52:59.628Z,98556.02
2018-11-06T07:55:31.171Z,98549.36
2018-11-06T07:57:59.770Z,98553.05
2018-11-06T08:00:28.354Z,98549.50
2018-11-06T08:02:57.005Z,98531.53
2018-11-06T08:05:25.569Z,98523.05
2018-11-06T08:07:54.183Z,98516.90
2018-11-06T08:10:25.444Z,98508.23
2018-11-06T08:12:54.633Z,98501.42
2018-11-06T08:15:23.189Z,98496.20
2018-11-06T08:17:51.875Z,98483.87
2018-11-06T08:20:20.424Z,98483.41
2018-11-06T08:22:49.033Z,98477.84
2018-11-06T08:25:18.233Z,98475.20
2018-11-06T08:27:47.112Z,98478.00
2018-11-06T08:30:15.700Z,98477.68
2018-11-06T08:32:44.498Z,98471.20
2018-11-06T08:35:14.581Z,98467.38
2018-11-06T08:37:43.403Z,98471.78
2018-11-06T08:40:13.345Z,98468.48
2018-11-06T08:42:41.950Z,98473.19
2018-11-06T08:45:11.840Z,98469.54
2018-11-06T08:47:41.316Z,98469.44
2018-11-06T08:50:11.569Z,98466.88
2018-11-06T08:52:40.316Z,98458.25
2018-11-06T08:55:10.176Z,98455.53
2018-11-06T08:57:39.025Z,98458.47
2018-11-06T09:00:09.589Z,98466.42
2018-11-06T09:02:38.418Z,98467.95
2018-11-06T09:05:08.749Z,98471.64
2018-11-06T09:07:37.445Z,98467.78
2018-11-06T09:10:06.844Z,98466.41
2018-11-06T09:12:35.433Z,98467.45
2018-11-06T09:15:04.193Z,98462.69
2018-11-06T09:17:32.744Z,98453.56
2018-11-06T09:20:03.009Z,98450.28
2018-11-06T09:22:31.639Z,98452.51
2018-11-06T09:25:00.250Z,98453.32
2018-11-06T09:27:28.916Z,98446.16
2018-11-06T09:29:57.799Z,98446.85
2018-11-06T09:32:26.343Z,98445.69
2018-11-06T09:34:54.941Z,98443.86
2018-11-06T09:37:23.488Z,98453.64
2018-11-06T09:39:52.137Z,98461.91
2018-11-06T09:42:20.734Z,98465.62
2018-11-06T09:44:49.322Z,98465.63
2018-11-06T09:47:17.927Z,98461.30
2018-11-06T09:49:46.561Z,98452.16
2018-11-06T09:52:15.138Z,98456.50
2018-11-06T09:54:43.789Z,98448.85
2018-11-06T09:57:12.368Z,98436.81
2018-11-06T09:59:40.973Z,98442.83
2018-11-06T10:02:09.569Z,98439.59
2018-11-06T10:04:38.165Z,98434.96
2018-11-06T10:07:07.297Z,98439.49
2018-11-06T10:09:35.596Z,98434.72
2018-11-06T10:12:04.200Z,98439.15
2018-11-06T10:14:32.803Z,98449.17
2018-11-06T10:17:01.348Z,98446.42
2018-11-06T10:19:30.017Z,98440.53
2018-11-06T10:21:58.581Z,98435.75
2018-11-06T10:24:27.388Z,98429.56
2018-11-06T10:26:55.938Z,98416.77
2018-11-06T10:29:24.769Z,98403.27
2018-11-06T10:31:53.433Z,98396.45
2018-11-06T10:34:21.981Z,98402.38
2018-11-06T10:36:50.579Z,98396.39
2018-11-06T10:39:19.131Z,98394.30
2018-11-06T10:41:47.737Z,98384.36
2018-11-06T10:44:16.302Z,98378.12
2018-11-06T10:46:44.909Z,98373.91
2018-11-06T10:49:13.508Z,98361.64
2018-11-06T10:51:42.144Z,98367.23
2018-11-06T10:54:10.737Z,98359.01
2018-11-06T10:56:39.349Z,98360.20
2018-11-06T10:59:07.946Z,98367.40
2018-11-06T11:01:41.812Z,98365.90
2018-11-06T11:04:16.319Z,98370.83
2018-11-06T11:06:44.889Z,98368.96
2018-11-06T11:09:13.461Z,98370.94
2018-11-06T11:11:42.052Z,98364.66
2018-11-06T11:14:10.624Z,98362.45
2018-11-06T11:16:39.226Z,98363.44
2018-11-06T11:19:07.780Z,98355.81
2018-11-06T11:21:36.372Z,98352.92
2018-11-06T11:24:05.077Z,98353.57
2018-11-06T11:26:33.662Z,98356.89
2018-11-06T11:29:02.245Z,98353.17
2018-11-06T11:31:30.856Z,98352.18
2018-11-06T11:33:59.404Z,98344.49
2018-11-06T11:36:27.997Z,98351.58
2018-11-06T11:38:56.526Z,98349.99
2018-11-06T11:41:25.115Z,98352.04
2018-11-06T11:43:53.978Z,98351.02
2018-11-06T11:46:22.557Z,98347.66
2018-11-06T11:48:51.243Z,98348.56
2018-11-06T11:51:19.897Z,98340.74
2018-11-06T11:53:48.445Z,98340.46
2018-11-06T11:56:17.102Z,98345.39
2018-11-06T11:58:45.639Z,98339.63
2018-11-06T12:01:14.284Z,98338.45
2018-11-06T12:03:43.062Z,98335.95
2018-11-06T12:06:11.649Z,98340.13
2018-11-06T12:08:40.199Z,98338.03
2018-11-06T12:11:08.769Z,98344.41
2018-11-06T12:13:37.297Z,98345.17
2018-11-06T12:16:05.947Z,98345.59
2018-11-06T12:18:34.523Z,98343.63
2018-11-06T12:21:03.218Z,98347.27
2018-11-06T12:23:31.768Z,98342.40
2018-11-06T12:26:00.460Z,98337.16
2018-11-06T12:28:29.017Z,98332.03
2018-11-06T12:30:57.877Z,98331.70
2018-11-06T12:33:26.691Z,98330.91
2018-11-06T12:35:56.444Z,98326.86
2018-11-06T12:38:25.077Z,98321.80
2018-11-06T12:40:53.609Z,98312.86
2018-11-06T12:43:28.867Z,98315.52
2018-11-06T12:46:03.591Z,98319.41
2018-11-06T12:48:36.312Z,98312.00
2018-11-06T12:51:07.753Z,98317.65
2018-11-06T12:53:39.070Z,98312.11
2018-11-06T12:56:10.706Z,98318.61
2018-11-06T12:58:41.248Z,98323.64
2018-11-06T13:01:11.603Z,98330.25
2018-11-06T13:03:42.170Z,98335.88
2018-11-06T13:06:12.608Z,98337.34
2018-11-06T13:08:41.255Z,98344.42
2018-11-06T13:11:09.786Z,98346.63
2018-11-06T13:13:38.393Z,98349.48
2018-11-06T13:16:06.990Z,98349.81
2018-11-06T13:18:35.535Z,98359.27
2018-11-06T13:21:04.786Z,98354.66
2018-11-06T13:23:35.435Z,98349.70
2018-11-06T13:26:07.819Z,98355.56
2018-11-06T13:28:41.571Z,98342.48
2018-11-06T13:31:21.418Z,98340.20
2018-11-06T13:33:57.985Z,98348.38
2018-11-06T13:36:35.120Z,98348.52
2018-11-06T13:39:12.867Z,98348.77
2018-11-06T13:41:50.270Z,98357.13
2018-11-06T13:44:25.568Z,98363.59
2018-11-06T13:47:01.813Z,98368.48
2018-11-06T13:49:43.808Z,98363.30
2018-11-06T13:52:18.077Z,98372.15
2018-11-06T13:54:53.195Z,98374.50
2018-11-06T13:57:26.450Z,98373.25
2018-11-06T13:59:59.151Z,98382.33
2018-11-06T14:02:38.752Z,98386.69
2018-11-06T14:05:16.918Z,98388.98
2018-11-06T14:07:51.524Z,98395.80
2018-11-06T14:10:23.173Z,98404.55
2018-11-06T14:12:57.115Z,98396.59
2018-11-06T14:15:30.220Z,98397.05
2018-11-06T14:18:04.859Z,98399.14
2018-11-06T14:20:45.147Z,98405.31
2018-11-06T14:23:17.941Z,98406.05
2018-11-06T14:25:49.901Z,98410.36
2018-11-06T14:28:23.279Z,98418.59
2018-11-06T14:30:57.516Z,98416.37
2018-11-06T14:33:30.617Z,98416.13
2018-11-06T14:36:04.874Z,98425.63
2018-11-06T14:38:40.053Z,98434.38
2018-11-06T14:41:11.869Z,98427.34
2018-11-06T14:43:45.750Z,98423.48
2018-11-06T14:46:19.254Z,98421.77
2018-11-06T14:48:53.095Z,98419.90
2018-11-06T14:51:26.331Z,98431.95
2018-11-06T14:54:01.905Z,98441.80
2018-11-06T14:56:35.432Z,98447.51
2018-11-06T14:59:12.645Z,98455.52
2018-11-06T15:01:45.000Z,98447.02
2018-11-06T15:04:18.627Z,98450.11
2018-11-06T15:06:52.637Z,98458.45
2018-11-06T15:09:26.581Z,98454.63
2018-11-06T15:12:01.320Z,98465.59
2018-11-06T15:14:34.567Z,98459.13
2018-11-06T15:17:06.824Z,98464.14
2018-11-06T15:19:42.406Z,98464.28
2018-11-06T15:22:16.125Z,98469.28
2018-11-06T15:24:51.594Z,98473.66
2018-11-06T15:27:26.729Z,98469.82
2018-11-06T15:30:03.823Z,98471.50
2018-11-06T15:32:39.858Z,98475.66
2018-11-06T15:35:16.089Z,98471.49
2018-11-06T15:37:48.128Z,98490.82
2018-11-06T15:40:24.431Z,98494.48
2018-11-06T15:43:04.255Z,98494.72
2018-11-06T15:52:47.797Z,98511.20
2018-11-06T15:55:22.176Z,98506.94
2018-11-06T15:57:55.818Z,98510.99
2018-11-06T16:00:28.064Z,98511.95
2018-11-06T16:03:03.131Z,98517.59
2018-11-06T16:05:36.555Z,98524.22
2018-11-06T16:08:13.630Z,98532.50
2018-11-06T16:10:45.027Z,98538.55
2018-11-06T16:13:20.505Z,98533.52
2018-11-06T16:15:55.410Z,98544.09
2018-11-06T16:18:28.620Z,98537.55
2018-11-06T16:21:02.883Z,98535.90
2018-11-06T16:23:39.021Z,98537.24
2018-11-06T16:26:13.451Z,98549.20
2018-11-06T16:28:47.289Z,98548.27
2018-11-06T16:31:19.505Z,98554.84
2018-11-06T16:33:53.989Z,98561.07
2018-11-06T16:36:28.336Z,98560.59
2018-11-06T16:39:01.716Z,98555.81
2018-11-06T16:41:35.646Z,98557.25
2018-11-06T16:44:11.607Z,98567.55
2018-11-06T16:46:45.517Z,98580.68
2018-11-06T16:49:19.172Z,98588.20
2018-11-06T16:51:52.826Z,98582.95
2018-11-06T16:54:25.363Z,98590.61
2018-11-06T16:57:00.434Z,98591.93
2018-11-06T16:59:35.454Z,98597.04
2018-11-06T17:02:11.052Z,98600.75
2018-11-06T17:04:45.491Z,98601.83
2018-11-06T17:07:20.033Z,98601.95
2018-11-06T17:09:53.907Z,98601.13
2018-11-06T17:12:28.000Z,98604.71
2018-11-06T17:15:01.518Z,98607.92
2018-11-06T17:17:37.009Z,98612.45
2018-11-06T17:20:14.307Z,98615.92
2018-11-06T17:22:47.690Z,98621.41
2018-11-06T17:25:22.852Z,98621.28
2018-11-06T17:27:58.348Z,98622.63
2018-11-06T17:30:32.027Z,98620.23
2018-11-06T17:33:05.381Z,98628.23
2018-11-06T17:35:38.425Z,98632.41
2018-11-06T17:38:12.747Z,98635.12
2018-11-06T17:40:45.185Z,98630.09
2018-11-06T17:43:25.662Z,98629.14
2018-11-06T17:46:04.859Z,98628.17
2018-11-06T17:48:38.553Z,98628.96
2018-11-06T17:51:11.140Z,98625.84
2018-11-06T17:53:47.844Z,98618.83
2018-11-06T17:56:21.987Z,98623.33
2018-11-06T17:58:55.901Z,98626.33
2018-11-06T18:01:30.812Z,98610.59
2018-11-06T18:04:05.963Z,98612.66
2018-11-06T18:06:40.689Z,98607.52
2018-11-06T18:09:18.821Z,98610.97
2018-11-06T18:11:59.477Z,98611.83
2018-11-06T18:14:29.118Z,98613.92
2018-11-06T18:17:03.614Z,98608.34
2018-11-06T18:19:42.996Z,98614.08
2018-11-06T18:22:19.327Z,98615.23
2018-11-06T18:24:52.892Z,98613.96
2018-11-06T18:27:25.937Z,98616.58
2018-11-06T18:30:01.401Z,98614.67
2018-11-06T18:32:35.715Z,98609.05
2018-11-06T18:35:12.052Z,98609.57
2018-11-06T18:37:45.864Z,98608.76
2018-11-06T18:40:22.144Z,98614.52
2018-11-06T18:42:56.877Z,98618.67
2018-11-06T18:45:30.021Z,98613.16
2018-11-06T18:48:05.129Z,98618.53
2018-11-06T18:50:39.635Z,98617.76
2018-11-06T18:53:12.857Z,98627.84
2018-11-06T18:55:45.570Z,98635.57
2018-11-06T18:58:18.759Z,98645.44
2018-11-06T19:00:50.231Z,98641.44
2018-11-06T19:03:23.322Z,98634.74
2018-11-06T19:05:56.588Z,98640.40
2018-11-06T19:08:31.819Z,98634.67
2018-11-06T19:11:06.323Z,98634.28
2018-11-06T19:13:40.941Z,98635.31
2018-11-06T19:16:13.281Z,98636.97
2018-11-06T19:18:47.473Z,98645.66
2018-11-06T19:21:21.988Z,98638.19
2018-11-06T19:23:56.950Z,98639.29
2018-11-06T19:26:32.885Z,98639.08
2018-11-06T19:29:09.214Z,98634.66
2018-11-06T19:31:43.826Z,98632.25
2018-11-06T19:34:17.647Z,98643.87
2018-11-06T19:36:50.771Z,98643.31
2018-11-06T19:39:23.129Z,98642.11
2018-11-06T19:41:58.438Z,98649.01
2018-11-06T19:44:33.403Z,98644.84
2018-11-06T19:47:13.849Z,98647.36
2018-11-06T19:49:49.733Z,98651.83
2018-11-06T19:52:22.386Z,98643.85
2018-11-06T19:54:56.811Z,98638.64
2018-11-06T19:57:30.459Z,98646.61
2018-11-06T20:00:08.681Z,98653.71
2018-11-06T20:02:44.974Z,98664.94
2018-11-06T20:05:23.346Z,98663.95
2018-11-06T20:07:55.242Z,98667.78
2018-11-06T20:10:29.426Z,98667.94
2018-11-06T20:13:03.263Z,98678.64
2018-11-06T20:15:40.229Z,98668.88
2018-11-06T20:18:14.019Z,98681.61
2018-11-06T20:20:51.456Z,98670.91
2018-11-06T20:23:26.033Z,98672.12
2018-11-06T20:25:59.376Z,98676.37
2018-11-06T20:28:32.914Z,98673.98
2018-11-06T20:31:08.251Z,98680.09
2018-11-06T20:33:39.244Z,98679.06
2018-11-06T20:36:12.729Z,98678.92
2018-11-06T20:38:49.670Z,98692.90
2018-11-06T20:41:25.918Z,98682.58
2018-11-06T20:44:00.675Z,98684.41
2018-11-06T20:46:36.084Z,98693.41
2018-11-06T20:49:10.625Z,98702.97
2018-11-06T20:51:45.565Z,98698.72
2018-11-06T20:54:21.546Z,98699.77
2018-11-06T20:56:55.986Z,98706.70
2018-11-06T20:59:35.474Z,98708.80
2018-11-06T21:02:07.575Z,98712.32
2018-11-06T21:04:42.431Z,98702.48
2018-11-06T21:07:16.156Z,98709.31
2018-11-06T21:09:51.814Z,98701.14
2018-11-06T21:12:27.116Z,98694.02
2018-11-06T21:15:01.683Z,98695.33
2018-11-06T21:17:37.104Z,98702.86
2018-11-06T21:20:09.266Z,98694.72
2018-11-06T21:22:37.965Z,98697.03
2018-11-06T21:25:07.314Z,98695.00
2018-11-06T21:27:35.908Z,98694.88
2018-11-06T21:30:05.092Z,98696.09
2018-11-06T21:32:33.741Z,98724.25
2018-11-06T21:35:02.356Z,98717.28
2018-11-06T21:37:31.267Z,98712.37
2018-11-06T21:39:59.860Z,98697.02
2018-11-06T21:42:28.420Z,98703.88
2018-11-06T21:44:57.031Z,98705.07
2018-11-06T21:47:25.627Z,98691.55
2018-11-06T21:49:54.233Z,98686.95
2018-11-06T21:52:23.085Z,98689.23
2018-11-06T21:54:51.691Z,98693.88
2018-11-06T21:57:20.279Z,98695.20
2018-11-06T21:59:48.893Z,98680.86
2018-11-06T22:02:17.471Z,98681.51
2018-11-06T22:04:46.085Z,98680.58
2018-11-06T22:07:15.948Z,98681.66
2018-11-06T22:09:46.509Z,98688.59
2018-11-06T22:12:18.878Z,98681.82
2018-11-06T22:14:50.630Z,98691.23
2018-11-06T22:17:20.735Z,98682.92
2018-11-06T22:19:50.324Z,98688.27
2018-11-06T22:22:21.793Z,98678.68
2018-11-06T22:24:51.990Z,98685.86
2018-11-06T22:27:22.328Z,98681.81
2018-11-06T22:29:52.319Z,98682.28
2018-11-06T22:32:22.387Z,98693.33
2018-11-06T22:34:56.881Z,98693.28
2018-11-06T22:37:31.998Z,98694.89
2018-11-06T22:40:03.154Z,98686.94
2018-11-06T22:42:35.460Z,98686.78
2018-11-06T22:45:13.078Z,98686.89
2018-11-06T22:47:44.593Z,98686.00
2018-11-06T22:50:19.975Z,98687.75
2018-11-06T22:52:53.263Z,98681.85
2018-11-06T22:55:28.045Z,98679.15
2018-11-06T22:58:01.423Z,98689.95
2018-11-06T23:00:39.266Z,98681.63
2018-11-06T23:03:13.372Z,98684.55
2018-11-06T23:05:46.886Z,98674.80
2018-11-06T23:08:25.251Z,98680.59
2018-11-06T23:10:58.696Z,98656.05
2018-11-06T23:13:32.315Z,98684.50
2018-11-06T23:16:07.498Z,98678.08
2018-11-06T23:18:41.863Z,98675.91
2018-11-06T23:21:16.708Z,98687.64
2018-11-06T23:23:50.959Z,98687.19
2018-11-06T23:26:26.996Z,98690.99
2018-11-06T23:29:00.641Z,98690.27
2018-11-06T23:31:35.805Z,98687.80
2018-11-06T23:34:11.301Z,98690.34
2018-11-06T23:36:44.604Z,98697.06
2018-11-06T23:39:17.033Z,98686.79
2018-11-06T23:41:49.494Z,98692.30
2018-11-06T23:44:20.655Z,98693.41
2018-11-06T23:46:51.102Z,98687.92
2018-11-06T23:49:22.693Z,98689.55
2018-11-06T23:51:56.774Z,98687.72
2018-11-06T23:54:27.054Z,98694.75
2018-11-06T23:56:57.681Z,98691.64
2018-11-06T23:59:29.023Z,98689.94
